Time;durP1;ratioP1;P1;durP2;ratioP2;P2;SDS_P1;SDS_P2;PMS_P1;PMS_P2;Temp;Humidity;BMP_temperature;BMP_pressure;BME280_temperature;BME280_humidity;BME280_pressure;Samples;Min_cycle;Max_cycle;Signal;HPM_P1;HPM_P2
2023/03/03 00:01:24;;;;;;;4.20;3.25;;;;;;;;;;4996856;28;20025;-80
2023/03/03 00:03:49;;;;;;;4.95;3.58;;;;;;;;;;4996655;28;20018;-80
2023/03/03 00:06:15;;;;;;;3.83;3.28;;;;;;;;;;4979795;28;20084;-80
2023/03/03 00:08:41;;;;;;;4.30;3.60;;;;;;;;;;4996336;28;20101;-80
2023/03/03 00:11:07;;;;;;;5.15;3.88;;;;;;;;;;4996295;28;20029;-79
2023/03/03 00:13:42;;;;;;;3.67;3.15;;;;;;;;;;4979512;28;20112;-81
2023/03/03 00:16:14;;;;;;;3.58;2.95;;;;;;;;;;4996103;28;20018;-80
2023/03/03 00:18:43;;;;;;;3.42;3.13;;;;;;;;;;5013924;28;20038;-81
2023/03/03 00:21:21;;;;;;;3.50;3.00;;;;;;;;;;4996378;28;20029;-80
2023/03/03 00:23:47;;;;;;;3.38;3.08;;;;;;;;;;5013713;28;20061;-81
2023/03/03 00:26:35;;;;;;;3.42;3.08;;;;;;;;;;5013439;28;20485;-80
2023/03/03 00:29:01;;;;;;;3.35;2.80;;;;;;;;;;4979658;28;20396;-81
2023/03/03 00:31:33;;;;;;;6.32;3.15;;;;;;;;;;4995505;28;20037;-80
2023/03/03 00:34:25;;;;;;;3.53;2.97;;;;;;;;;;4996016;28;20092;-81
2023/03/03 00:36:54;;;;;;;4.00;3.00;;;;;;;;;;4979406;28;20477;-80
2023/03/03 00:39:28;;;;;;;3.45;2.60;;;;;;;;;;5013586;28;20121;-81
2023/03/03 00:41:55;;;;;;;3.60;2.95;;;;;;;;;;4995961;28;20032;-80
2023/03/03 00:44:43;;;;;;;4.07;2.80;;;;;;;;;;4995828;28;20030;-81
2023/03/03 00:47:27;;;;;;;2.85;2.53;;;;;;;;;;4995822;28;20038;-81
2023/03/03 00:50:12;;;;;;;3.25;2.95;;;;;;;;;;5013449;28;20481;-81
2023/03/03 00:52:45;;;;;;;3.50;2.70;;;;;;;;;;5013217;28;20487;-81
2023/03/03 00:55:11;;;;;;;5.05;2.80;;;;;;;;;;4995434;28;20028;-82
2023/03/03 00:57:36;;;;;;;4.38;3.10;;;;;;;;;;4995940;28;20116;-81
2023/03/03 01:00:02;;;;;;;3.20;2.85;;;;;;;;;;4995854;28;20025;-81
2023/03/03 01:02:28;;;;;;;3.35;2.88;;;;;;;;;;4995591;28;20081;-81
2023/03/03 01:04:56;;;;;;;3.22;2.60;;;;;;;;;;4979311;28;20030;-81
2023/03/03 01:07:25;;;;;;;2.95;2.60;;;;;;;;;;4979658;28;20034;-81
2023/03/03 01:09:51;;;;;;;3.05;2.70;;;;;;;;;;4996264;28;20507;-82
2023/03/03 01:12:16;;;;;;;3.80;3.08;;;;;;;;;;4995644;28;20113;-81
2023/03/03 01:14:44;;;;;;;3.00;2.70;;;;;;;;;;4995589;28;20407;-81
2023/03/03 01:17:09;;;;;;;3.25;2.90;;;;;;;;;;5012929;28;20030;-81
2023/03/03 01:19:34;;;;;;;3.30;3.00;;;;;;;;;;5013010;28;20034;-81
2023/03/03 01:22:00;;;;;;;3.28;2.92;;;;;;;;;;4995547;28;20022;-81
2023/03/03 01:24:25;;;;;;;2.83;2.53;;;;;;;;;;4995890;28;20052;-80
2023/03/03 01:26:51;;;;;;;3.00;2.70;;;;;;;;;;4999026;28;20025;-81
2023/03/03 01:29:16;;;;;;;3.00;2.70;;;;;;;;;;4998992;28;20033;-81
2023/03/03 01:31:42;;;;;;;2.90;2.60;;;;;;;;;;5016218;28;20109;-80
2023/03/03 01:34:07;;;;;;;3.33;2.95;;;;;;;;;;5016165;28;20111;-80
2023/03/03 01:36:33;;;;;;;6.03;2.90;;;;;;;;;;4982665;28;20080;-79
2023/03/03 01:38:59;;;;;;;3.53;2.92;;;;;;;;;;5015211;28;20032;-80
2023/03/03 01:41:29;;;;;;;3.65;3.00;;;;;;;;;;4999185;28;20038;-80
2023/03/03 01:43:55;;;;;;;3.30;2.60;;;;;;;;;;4998825;28;20060;-80
2023/03/03 01:46:23;;;;;;;3.60;2.92;;;;;;;;;;5016714;28;20038;-80
2023/03/03 01:48:51;;;;;;;3.10;2.78;;;;;;;;;;5016833;28;20496;-80
2023/03/03 01:51:23;;;;;;;3.08;2.70;;;;;;;;;;5016216;28;20485;-80
2023/03/03 01:53:57;;;;;;;4.00;2.90;;;;;;;;;;4998595;28;20026;-81
2023/03/03 01:56:23;;;;;;;4.65;2.88;;;;;;;;;;5015913;28;20036;-79
2023/03/03 01:58:53;;;;;;;3.20;2.85;;;;;;;;;;4998497;28;20056;-80
2023/03/03 02:01:21;;;;;;;3.65;2.85;;;;;;;;;;4998557;28;20032;-80
2023/03/03 02:03:46;;;;;;;3.65;3.10;;;;;;;;;;4998209;28;20119;-80
2023/03/03 02:06:14;;;;;;;3.28;2.70;;;;;;;;;;4998550;28;20060;-80
2023/03/03 02:08:51;;;;;;;4.35;2.80;;;;;;;;;;4998306;28;20033;-80
2023/03/03 02:11:17;;;;;;;5.05;2.92;;;;;;;;;;4981849;28;20030;-80
2023/03/03 02:13:42;;;;;;;3.28;2.65;;;;;;;;;;4981985;28;20029;-80
2023/03/03 02:16:08;;;;;;;3.03;2.63;;;;;;;;;;4998187;28;20037;-80
2023/03/03 02:18:33;;;;;;;4.78;2.90;;;;;;;;;;4998898;28;20342;-81
2023/03/03 02:21:05;;;;;;;3.50;2.63;;;;;;;;;;4998098;28;20496;-80
2023/03/03 02:23:52;;;;;;;2.85;2.47;;;;;;;;;;5015674;28;20131;-81
2023/03/03 02:26:21;;;;;;;3.17;2.88;;;;;;;;;;5015834;28;20022;-81
2023/03/03 02:28:47;;;;;;;3.80;2.88;;;;;;;;;;4998361;28;20092;-82
2023/03/03 02:31:15;;;;;;;3.17;2.85;;;;;;;;;;4981464;28;20049;-82
2023/03/03 02:33:42;;;;;;;3.65;2.90;;;;;;;;;;4981499;28;20461;-81
2023/03/03 02:36:17;;;;;;;4.45;2.80;;;;;;;;;;4997883;28;20048;-80
2023/03/03 02:38:58;;;;;;;3.20;2.90;;;;;;;;;;4998170;28;20372;-81
2023/03/03 02:41:45;;;;;;;3.45;2.72;;;;;;;;;;4981465;28;20087;-81
2023/03/03 02:44:16;;;;;;;3.13;2.58;;;;;;;;;;4997540;28;20022;-81
2023/03/03 02:46:43;;;;;;;3.45;3.00;;;;;;;;;;4997151;28;20026;-80
2023/03/03 02:49:11;;;;;;;3.92;3.00;;;;;;;;;;5015858;28;20038;-80
2023/03/03 02:51:36;;;;;;;4.07;3.13;;;;;;;;;;5014852;28;20116;-80
2023/03/03 02:54:03;;;;;;;3.20;2.88;;;;;;;;;;5015025;28;20120;-80
2023/03/03 02:56:28;;;;;;;5.03;2.88;;;;;;;;;;4997362;28;20378;-81
2023/03/03 02:58:54;;;;;;;3.08;2.70;;;;;;;;;;5015323;28;20100;-80
2023/03/03 03:01:19;;;;;;;3.53;2.80;;;;;;;;;;5014845;28;20096;-80
2023/03/03 03:03:45;;;;;;;3.50;2.90;;;;;;;;;;4997476;28;20061;-80
2023/03/03 03:06:10;;;;;;;4.10;3.00;;;;;;;;;;4980835;28;20076;-80
2023/03/03 03:08:36;;;;;;;6.78;2.92;;;;;;;;;;4980862;28;20061;-80
2023/03/03 03:11:02;;;;;;;4.40;2.88;;;;;;;;;;5013271;28;20084;-79
2023/03/03 03:13:29;;;;;;;3.67;3.10;;;;;;;;;;4996926;28;20030;-80
2023/03/03 03:15:54;;;;;;;3.65;3.05;;;;;;;;;;4997409;28;20029;-80
2023/03/03 03:18:19;;;;;;;3.40;3.00;;;;;;;;;;5014815;28;20049;-80
2023/03/03 03:20:45;;;;;;;3.20;2.90;;;;;;;;;;5014324;28;20057;-81
2023/03/03 03:23:11;;;;;;;3.60;3.00;;;;;;;;;;4997066;28;20033;-80
2023/03/03 03:25:44;;;;;;;3.33;2.88;;;;;;;;;;4996692;28;20026;-81
2023/03/03 03:28:14;;;;;;;3.47;3.15;;;;;;;;;;4998087;28;20097;-80
2023/03/03 03:30:40;;;;;;;3.40;3.10;;;;;;;;;;4996538;28;20109;-81
2023/03/03 03:33:06;;;;;;;3.10;2.80;;;;;;;;;;4996596;28;20029;-80
2023/03/03 03:35:32;;;;;;;3.53;2.90;;;;;;;;;;5014419;28;20030;-80
2023/03/03 03:37:58;;;;;;;3.72;3.05;;;;;;;;;;4964416;28;20037;-80
2023/03/03 03:40:25;;;;;;;3.90;2.75;;;;;;;;;;5014582;28;20034;-80
2023/03/03 03:42:51;;;;;;;3.83;2.75;;;;;;;;;;5014034;28;20025;-80
2023/03/03 03:45:16;;;;;;;4.20;2.90;;;;;;;;;;4996505;28;20500;-80
2023/03/03 03:47:42;;;;;;;4.07;2.80;;;;;;;;;;5013455;28;20049;-81
2023/03/03 03:50:08;;;;;;;3.72;2.97;;;;;;;;;;4996614;28;20029;-80
2023/03/03 03:52:34;;;;;;;4.13;3.20;;;;;;;;;;4963786;28;20041;-80
2023/03/03 03:54:59;;;;;;;3.33;3.00;;;;;;;;;;5013898;28;20033;-80
2023/03/03 03:57:25;;;;;;;3.42;2.90;;;;;;;;;;5014019;28;20037;-81
2023/03/03 03:59:50;;;;;;;3.55;2.92;;;;;;;;;;4996161;28;20048;-80
2023/03/03 04:02:16;;;;;;;3.65;3.05;;;;;;;;;;4996043;28;20393;-80
2023/03/03 04:04:41;;;;;;;4.07;3.03;;;;;;;;;;4996035;28;20061;-80
2023/03/03 04:07:07;;;;;;;4.18;2.80;;;;;;;;;;5013615;28;20030;-81
2023/03/03 04:09:32;;;;;;;2.90;2.63;;;;;;;;;;4996597;28;20025;-81
2023/03/03 04:11:57;;;;;;;4.22;2.85;;;;;;;;;;4996640;28;20074;-80
2023/03/03 04:14:23;;;;;;;3.50;3.00;;;;;;;;;;4996136;28;20453;-80
2023/03/03 04:16:48;;;;;;;3.38;2.88;;;;;;;;;;4996293;28;20097;-80
2023/03/03 04:19:14;;;;;;;3.30;2.75;;;;;;;;;;5013709;28;20117;-80
2023/03/03 04:21:39;;;;;;;4.20;3.15;;;;;;;;;;4995990;28;20030;-80
2023/03/03 04:24:05;;;;;;;3.35;2.80;;;;;;;;;;4995705;28;20480;-79
2023/03/03 04:26:30;;;;;;;3.28;2.88;;;;;;;;;;4996412;28;20116;-80
2023/03/03 04:28:57;;;;;;;3.50;2.78;;;;;;;;;;4995962;28;20441;-80
2023/03/03 04:31:24;;;;;;;4.07;3.38;;;;;;;;;;5013310;28;20029;-80
2023/03/03 04:33:50;;;;;;;4.28;3.33;;;;;;;;;;5013663;28;20021;-80
2023/03/03 04:36:15;;;;;;;4.78;3.38;;;;;;;;;;4995779;28;20052;-80
2023/03/03 04:38:41;;;;;;;3.45;3.08;;;;;;;;;;4995852;28;20030;-80
2023/03/03 04:41:06;;;;;;;4.10;3.33;;;;;;;;;;4995890;28;20107;-79
2023/03/03 04:43:31;;;;;;;3.67;2.95;;;;;;;;;;4995862;28;20029;-80
2023/03/03 04:45:57;;;;;;;3.20;2.80;;;;;;;;;;4995517;28;20037;-80
2023/03/03 04:48:22;;;;;;;3.92;3.05;;;;;;;;;;4995751;28;20261;-80
2023/03/03 04:50:48;;;;;;;3.97;3.10;;;;;;;;;;5013453;28;20084;-81
2023/03/03 04:53:13;;;;;;;3.17;2.88;;;;;;;;;;4979270;28;20393;-81
2023/03/03 04:55:39;;;;;;;3.40;3.03;;;;;;;;;;5013143;28;20037;-81
2023/03/03 04:58:05;;;;;;;3.50;2.95;;;;;;;;;;4995919;28;20026;-81
2023/03/03 05:00:31;;;;;;;3.63;3.20;;;;;;;;;;4997867;28;20558;-81
2023/03/03 05:02:56;;;;;;;4.95;3.20;;;;;;;;;;4998751;28;20032;-81
2023/03/03 05:05:22;;;;;;;4.50;3.38;;;;;;;;;;5016233;28;20056;-81
2023/03/03 05:07:47;;;;;;;3.70;2.97;;;;;;;;;;4998668;28;20465;-81
2023/03/03 05:10:13;;;;;;;4.18;3.45;;;;;;;;;;5016245;28;20041;-81
2023/03/03 05:12:39;;;;;;;3.67;3.28;;;;;;;;;;4999088;28;20030;-81
2023/03/03 05:15:05;;;;;;;3.13;2.67;;;;;;;;;;4998567;28;20030;-81
2023/03/03 05:17:30;;;;;;;6.32;2.95;;;;;;;;;;4998454;28;20046;-81
2023/03/03 05:19:56;;;;;;;3.50;2.80;;;;;;;;;;4998392;28;20032;-81
2023/03/03 05:22:22;;;;;;;3.22;2.80;;;;;;;;;;4998342;28;20089;-81
2023/03/03 05:24:48;;;;;;;3.75;2.75;;;;;;;;;;4998509;28;20025;-80
2023/03/03 05:27:14;;;;;;;3.85;3.00;;;;;;;;;;4998482;28;20036;-80
2023/03/03 05:29:40;;;;;;;3.95;2.90;;;;;;;;;;4982234;28;20124;-80
2023/03/03 05:32:05;;;;;;;4.28;3.08;;;;;;;;;;5015930;28;20457;-80
2023/03/03 05:34:31;;;;;;;3.55;2.75;;;;;;;;;;4998192;28;20049;-80
2023/03/03 05:36:56;;;;;;;3.20;2.78;;;;;;;;;;4998451;28;20064;-80
2023/03/03 05:39:22;;;;;;;3.58;2.85;;;;;;;;;;5015812;28;20409;-80
2023/03/03 05:41:47;;;;;;;3.10;2.53;;;;;;;;;;4998040;28;20058;-80
2023/03/03 05:44:13;;;;;;;4.75;2.90;;;;;;;;;;4997828;28;20073;-81
2023/03/03 05:46:41;;;;;;;3.30;3.00;;;;;;;;;;4998014;28;20029;-81
2023/03/03 05:49:07;;;;;;;5.03;3.03;;;;;;;;;;5016705;28;20112;-81
2023/03/03 05:51:33;;;;;;;6.88;2.70;;;;;;;;;;4981453;28;20157;-79
2023/03/03 05:53:58;;;;;;;3.90;2.67;;;;;;;;;;5015696;28;20061;-80
2023/03/03 05:56:23;;;;;;;4.28;2.63;;;;;;;;;;4998259;28;20484;-80
2023/03/03 05:58:49;;;;;;;3.20;2.30;;;;;;;;;;5015527;28;20029;-80
2023/03/03 06:01:14;;;;;;;3.35;2.60;;;;;;;;;;5015574;28;20041;-80
2023/03/03 06:03:40;;;;;;;3.70;2.70;;;;;;;;;;4997638;28;20115;-80
2023/03/03 06:06:05;;;;;;;3.30;2.47;;;;;;;;;;5015666;28;20037;-80
2023/03/03 06:08:31;;;;;;;3.47;2.67;;;;;;;;;;4997265;28;20034;-80
2023/03/03 06:10:57;;;;;;;5.50;2.63;;;;;;;;;;5013045;28;20057;-80
2023/03/03 06:13:22;;;;;;;3.38;2.47;;;;;;;;;;5014998;28;20022;-80
2023/03/03 06:15:48;;;;;;;3.17;2.70;;;;;;;;;;4997352;28;20034;-80
2023/03/03 06:18:13;;;;;;;3.40;2.55;;;;;;;;;;4997850;28;20116;-80
2023/03/03 06:20:39;;;;;;;3.50;2.70;;;;;;;;;;5014629;28;20034;-81
2023/03/03 06:23:04;;;;;;;3.78;2.70;;;;;;;;;;5015370;28;20049;-80
2023/03/03 06:25:30;;;;;;;2.75;2.45;;;;;;;;;;4997202;28;20030;-81
2023/03/03 06:27:55;;;;;;;3.33;2.70;;;;;;;;;;4997172;28;20381;-80
2023/03/03 06:30:21;;;;;;;3.13;2.72;;;;;;;;;;4980454;28;20451;-80
2023/03/03 06:32:46;;;;;;;2.95;2.50;;;;;;;;;;4980609;28;20041;-80
2023/03/03 06:35:12;;;;;;;3.05;2.75;;;;;;;;;;5014631;28;20366;-80
2023/03/03 06:37:37;;;;;;;3.33;2.58;;;;;;;;;;4996908;28;20373;-80
2023/03/03 06:40:04;;;;;;;3.85;2.90;;;;;;;;;;5014757;28;20029;-80
2023/03/03 06:42:29;;;;;;;3.38;2.85;;;;;;;;;;4980310;28;20029;-80
2023/03/03 06:44:55;;;;;;;3.20;2.60;;;;;;;;;;4996669;28;20125;-80
2023/03/03 06:47:20;;;;;;;5.03;3.08;;;;;;;;;;4996092;28;20085;-79
2023/03/03 06:49:46;;;;;;;3.90;3.03;;;;;;;;;;5014128;28;20113;-81
2023/03/03 06:52:19;;;;;;;3.35;2.67;;;;;;;;;;5014132;28;20055;-80
2023/03/03 06:54:44;;;;;;;3.27;2.50;;;;;;;;;;4996770;28;20496;-80
2023/03/03 06:57:26;;;;;;;8.43;2.80;;;;;;;;;;4996568;28;20030;-80
2023/03/03 06:59:53;;;;;;;3.13;2.50;;;;;;;;;;4995944;28;20034;-80
2023/03/03 07:02:20;;;;;;;5.50;2.90;;;;;;;;;;4996318;28;20049;-80
2023/03/03 07:04:46;;;;;;;8.32;2.83;;;;;;;;;;4996083;28;20108;-80
2023/03/03 07:07:14;;;;;;;3.17;2.33;;;;;;;;;;4996130;28;20461;-80
2023/03/03 07:09:39;;;;;;;3.85;2.90;;;;;;;;;;5013732;28;20030;-81
2023/03/03 07:12:10;;;;;;;3.35;2.63;;;;;;;;;;4996577;28;20040;-82
2023/03/03 07:14:50;;;;;;;7.72;3.08;;;;;;;;;;4996301;28;20485;-80
2023/03/03 07:17:18;;;;;;;8.10;3.33;;;;;;;;;;5013765;28;20049;-79
2023/03/03 07:19:45;;;;;;;7.38;3.40;;;;;;;;;;5013485;28;20036;-81
2023/03/03 07:22:15;;;;;;;6.85;3.45;;;;;;;;;;4995344;28;20073;-79
2023/03/03 07:24:42;;;;;;;8.43;3.58;;;;;;;;;;4979880;28;20026;-78
2023/03/03 07:27:17;;;;;;;6.57;3.05;;;;;;;;;;4979992;28;20036;-78
2023/03/03 07:29:42;;;;;;;8.88;3.20;;;;;;;;;;4996265;28;20029;-77
2023/03/03 07:32:26;;;;;;;7.05;2.92;;;;;;;;;;4979480;28;20091;-78
2023/03/03 07:34:54;;;;;;;8.32;3.00;;;;;;;;;;4996034;28;20034;-81
2023/03/03 07:37:30;;;;;;;10.77;2.85;;;;;;;;;;4995930;28;20022;-80
2023/03/03 07:39:56;;;;;;;5.28;2.88;;;;;;;;;;5013483;28;20037;-80
2023/03/03 07:42:21;;;;;;;8.18;2.90;;;;;;;;;;4996033;28;20030;-80
2023/03/03 07:44:50;;;;;;;7.63;2.85;;;;;;;;;;5013281;28;20480;-81
2023/03/03 07:47:22;;;;;;;4.05;2.60;;;;;;;;;;4995381;28;20177;-81
2023/03/03 07:49:48;;;;;;;4.80;2.42;;;;;;;;;;4979650;28;20034;-81
2023/03/03 07:52:25;;;;;;;5.97;2.00;;;;;;;;;;4980192;28;20029;-82
2023/03/03 07:54:51;;;;;;;5.10;2.53;;;;;;;;;;5013111;28;20033;-80
2023/03/03 07:57:24;;;;;;;7.72;2.65;;;;;;;;;;4995713;28;20029;-82
2023/03/03 08:00:01;;;;;;;3.40;2.50;;;;;;;;;;4995593;28;20022;-82
2023/03/03 08:02:37;;;;;;;7.63;2.85;;;;;;;;;;4971156;28;20030;-83
2023/03/03 08:05:28;;;;;;;5.53;2.58;;;;;;;;;;4979036;28;20072;-78
2023/03/03 08:08:01;;;;;;;7.18;2.85;;;;;;;;;;4993164;28;20408;-83
2023/03/03 08:10:43;;;;;;;9.50;3.55;;;;;;;;;;4997093;28;20040;-85
2023/03/03 08:13:36;;;;;;;7.25;3.28;;;;;;;;;;4995323;28;20029;-84
2023/03/03 08:16:04;;;;;;;5.40;2.50;;;;;;;;;;5013226;28;20140;-86
2023/03/03 08:18:35;;;;;;;10.20;3.75;;;;;;;;;;4995482;28;20030;-85
2023/03/03 08:21:12;;;;;;;6.65;2.92;;;;;;;;;;5012866;28;20112;-85
2023/03/03 08:23:37;;;;;;;6.80;2.67;;;;;;;;;;4995304;28;20025;-86
2023/03/03 08:26:03;;;;;;;12.82;2.85;;;;;;;;;;4995262;28;20033;-84
2023/03/03 08:28:28;;;;;;;14.93;3.35;;;;;;;;;;5014408;28;20061;-83
2023/03/03 08:30:54;;;;;;;6.88;2.72;;;;;;;;;;4979371;28;20057;-83
2023/03/03 08:33:20;;;;;;;12.57;3.45;;;;;;;;;;4995184;28;20034;-87
2023/03/03 08:35:46;;;;;;;10.50;4.07;;;;;;;;;;4996043;28;20080;-85
2023/03/03 08:38:13;;;;;;;13.30;4.20;;;;;;;;;;4996962;28;20021;-85
2023/03/03 08:40:38;;;;;;;14.93;3.40;;;;;;;;;;4979938;28;20027;-86
2023/03/03 08:43:04;;;;;;;8.75;3.25;;;;;;;;;;4979788;28;20030;-85
2023/03/03 08:45:30;;;;;;;11.02;3.30;;;;;;;;;;5014765;28;20034;-84
2023/03/03 08:47:55;;;;;;;8.75;3.03;;;;;;;;;;4981808;28;20230;-89
2023/03/03 08:50:21;;;;;;;6.88;3.20;;;;;;;;;;4980601;28;20037;-86
2023/03/03 08:52:47;;;;;;;13.18;3.03;;;;;;;;;;5000266;28;20030;-88
2023/03/03 08:55:12;;;;;;;5.75;2.97;;;;;;;;;;4997393;28;20037;-88
2023/03/03 08:57:38;;;;;;;4.90;2.50;;;;;;;;;;4983250;28;20089;-86
2023/03/03 09:00:07;;;;;;;7.18;2.88;;;;;;;;;;5016869;28;20112;-90
2023/03/03 09:02:33;;;;;;;5.25;2.42;;;;;;;;;;4982083;28;20045;-93
2023/03/03 09:04:59;;;;;;;6.63;2.78;;;;;;;;;;5015625;28;20030;-89
2023/03/03 09:07:24;;;;;;;11.40;3.05;;;;;;;;;;5014403;28;20060;-85
2023/03/03 09:09:49;;;;;;;4.30;2.47;;;;;;;;;;4996937;28;20426;-89
2023/03/03 09:12:18;;;;;;;7.35;2.50;;;;;;;;;;5015635;28;20040;-90
2023/03/03 09:14:43;;;;;;;3.92;2.28;;;;;;;;;;4996745;28;20184;-89
2023/03/03 09:17:24;;;;;;;6.38;2.40;;;;;;;;;;4997134;28;20049;-86
2023/03/03 09:19:51;;;;;;;5.07;2.30;;;;;;;;;;4996016;28;20030;-93
2023/03/03 09:22:22;;;;;;;5.30;2.40;;;;;;;;;;4996425;28;20033;-90
2023/03/03 09:24:52;;;;;;;3.97;2.28;;;;;;;;;;4999188;28;20025;-90
2023/03/03 09:27:28;;;;;;;4.60;2.03;;;;;;;;;;4994583;28;20022;-92
2023/03/03 09:29:54;;;;;;;4.88;2.40;;;;;;;;;;4995690;28;20022;-90
2023/03/03 09:32:41;;;;;;;2.63;2.00;;;;;;;;;;4996281;28;20029;-88
2023/03/03 09:35:36;;;;;;;2.83;1.92;;;;;;;;;;4980078;28;20080;-90
2023/03/03 09:38:15;;;;;;;3.30;2.15;;;;;;;;;;4979542;28;20026;-89
2023/03/03 09:40:58;;;;;;;4.30;1.90;;;;;;;;;;5013074;28;20026;-90
2023/03/03 09:43:28;;;;;;;4.15;2.17;;;;;;;;;;5015006;28;20366;-96
2023/03/03 09:46:22;;;;;;;5.10;2.08;;;;;;;;;;5001862;28;20017;-95
2023/03/03 09:48:54;;;;;;;;;;;;;;;;;;5007260;28;20050;-91
2023/03/03 09:51:50;;;;;;;2.60;2.00;;;;;;;;;;5005719;28;19920;-95
2023/03/03 09:54:28;;;;;;;8.05;2.30;;;;;;;;;;5023564;28;20037;-95
2023/03/03 09:57:15;;;;;;;3.42;2.33;;;;;;;;;;5002261;28;20021;-95
2023/03/03 09:59:48;;;;;;;3.35;2.28;;;;;;;;;;5001531;28;20497;-95
2023/03/03 10:02:48;;;;;;;4.93;2.03;;;;;;;;;;5003528;28;20080;-93
2023/03/03 10:05:32;;;;;;;2.95;2.30;;;;;;;;;;4982935;28;20045;-94
2023/03/03 10:08:19;;;;;;;5.30;2.22;;;;;;;;;;5001221;28;20436;-96
2023/03/03 10:10:45;;;;;;;3.20;2.00;;;;;;;;;;5002030;28;20064;-96
2023/03/03 10:13:19;;;;;;;3.85;2.10;;;;;;;;;;5003305;28;20025;-96
2023/03/03 10:16:17;;;;;;;2.20;1.85;;;;;;;;;;5017640;28;20046;-94
2023/03/03 10:19:14;;;;;;;3.67;2.15;;;;;;;;;;5014884;28;20053;-95
2023/03/03 10:21:50;;;;;;;3.65;1.92;;;;;;;;;;5017562;28;20517;-94
2023/03/03 10:24:30;;;;;;;4.70;1.80;;;;;;;;;;5001023;28;20041;-95
2023/03/03 10:27:18;;;;;;;3.72;1.90;;;;;;;;;;4982861;28;20068;-92
2023/03/03 10:30:08;;;;;;;3.10;1.67;;;;;;;;;;5017381;28;20029;-90
2023/03/03 10:32:57;;;;;;;5.95;2.15;;;;;;;;;;4998602;28;20647;-89
2023/03/03 10:35:53;;;;;;;8.27;2.00;;;;;;;;;;5000065;28;20392;-94
2023/03/03 10:38:18;;;;;;;2.63;1.92;;;;;;;;;;4998662;28;20116;-91
2023/03/03 10:40:59;;;;;;;2.78;1.90;;;;;;;;;;5017985;28;20050;-89
2023/03/03 10:43:24;;;;;;;5.22;2.00;;;;;;;;;;5016457;28;20034;-89
2023/03/03 10:46:02;;;;;;;5.97;2.33;;;;;;;;;;5000880;28;20021;-89
2023/03/03 10:48:47;;;;;;;6.13;1.58;;;;;;;;;;5018087;28;20042;-91
2023/03/03 10:51:15;;;;;;;2.85;1.70;;;;;;;;;;5000919;28;20021;-91
2023/03/03 10:53:52;;;;;;;3.17;1.80;;;;;;;;;;5023551;28;20026;-91
2023/03/03 10:56:49;;;;;;;2.50;1.52;;;;;;;;;;5017305;28;20052;-91
2023/03/03 10:59:20;;;;;;;2.47;1.67;;;;;;;;;;4998822;28;20088;-90
2023/03/03 11:01:52;;;;;;;8.93;1.77;;;;;;;;;;5015819;28;20029;-91
2023/03/03 11:04:24;;;;;;;2.80;1.85;;;;;;;;;;4998568;28;20028;-90
2023/03/03 11:07:05;;;;;;;3.83;1.40;;;;;;;;;;4983440;28;20025;-92
2023/03/03 11:09:53;;;;;;;2.33;1.60;;;;;;;;;;4983637;28;20033;-91
2023/03/03 11:12:36;;;;;;;1.88;1.42;;;;;;;;;;5016831;28;20049;-93
2023/03/03 11:15:01;;;;;;;2.47;1.63;;;;;;;;;;5018083;28;20070;-91
2023/03/03 11:17:55;;;;;;;3.60;1.40;;;;;;;;;;5017136;28;20108;-93
2023/03/03 11:20:31;;;;;;;2.17;1.58;;;;;;;;;;5017407;28;20049;-91
2023/03/03 11:23:22;;;;;;;1.73;1.33;;;;;;;;;;4984696;28;20041;-91
2023/03/03 11:26:06;;;;;;;3.80;1.45;;;;;;;;;;5000932;28;20037;-89
2023/03/03 11:29:04;;;;;;;1.98;1.30;;;;;;;;;;5003876;28;20117;-92
2023/03/03 11:31:55;;;;;;;1.60;1.30;;;;;;;;;;4989842;28;20044;-89
2023/03/03 11:34:46;;;;;;;1.40;1.25;;;;;;;;;;5004508;28;20430;-94
2023/03/03 11:37:26;;;;;;;2.47;1.30;;;;;;;;;;5015919;28;20034;-88
2023/03/03 11:39:54;;;;;;;4.75;2.22;;;;;;;;;;4982659;28;20055;-94
2023/03/03 11:42:31;;;;;;;1.63;1.33;;;;;;;;;;4999870;28;20080;-94
2023/03/03 11:45:02;;;;;;;3.35;1.50;;;;;;;;;;4983208;28;20483;-94
2023/03/03 11:47:44;;;;;;;6.30;1.95;;;;;;;;;;5000280;28;20034;-95
2023/03/03 11:50:19;;;;;;;3.88;1.70;;;;;;;;;;5001951;28;20032;-94
2023/03/03 11:52:56;;;;;;;6.15;1.40;;;;;;;;;;5016349;28;20033;-91
2023/03/03 11:55:30;;;;;;;3.70;1.40;;;;;;;;;;5016204;28;20547;-92
2023/03/03 11:58:26;;;;;;;2.85;1.40;;;;;;;;;;5007574;28;20030;-89
2023/03/03 12:01:47;;;;;;;2.63;1.45;;;;;;;;;;5019007;28;20102;-91
2023/03/03 12:04:19;;;;;;;4.38;1.30;;;;;;;;;;4923647;29;20112;-91
2023/03/03 12:07:02;;;;;;;5.00;1.10;;;;;;;;;;4927952;29;20040;-91
2023/03/03 12:09:56;;;;;;;2.28;1.20;;;;;;;;;;4940321;29;20128;-90
2023/03/03 12:12:24;;;;;;;7.22;1.42;;;;;;;;;;4931546;29;20058;-91
2023/03/03 12:15:08;;;;;;;2.88;1.20;;;;;;;;;;4924295;29;20064;-91
2023/03/03 12:18:07;;;;;;;1.23;1.00;;;;;;;;;;4923425;29;20459;-91
2023/03/03 12:21:12;;;;;;;1.70;1.13;;;;;;;;;;4939893;29;20128;-91
2023/03/03 12:23:40;;;;;;;3.90;1.27;;;;;;;;;;4927839;28;20039;-91
2023/03/03 12:26:14;;;;;;;1.20;1.00;;;;;;;;;;4938823;29;20140;-88
2023/03/03 12:28:52;;;;;;;;;;;;;;;;;;4944785;29;20090;-90
2023/03/03 12:31:46;;;;;;;1.75;0.82;;;;;;;;;;4937699;29;19911;-92
2023/03/03 12:34:19;;;;;;;1.57;0.97;;;;;;;;;;4922349;29;20087;-86
2023/03/03 12:37:12;;;;;;;1.45;1.02;;;;;;;;;;4927731;28;20592;-92
2023/03/03 12:39:50;;;;;;;2.28;1.17;;;;;;;;;;4998190;28;20136;-90
2023/03/03 12:42:38;;;;;;;1.95;1.25;;;;;;;;;;5015425;28;20120;-89
2023/03/03 12:45:42;;;;;;;1.25;1.15;;;;;;;;;;4997893;28;20112;-92
2023/03/03 12:48:14;;;;;;;3.65;1.70;;;;;;;;;;5012132;28;20129;-92
2023/03/03 12:50:59;;;;;;;3.55;1.80;;;;;;;;;;4999814;28;20025;-93
2023/03/03 12:53:39;;;;;;;3.28;2.30;;;;;;;;;;5002499;28;20392;-91
2023/03/03 12:56:07;;;;;;;5.20;2.60;;;;;;;;;;4983011;28;20062;-91
2023/03/03 12:59:08;;;;;;;4.80;2.53;;;;;;;;;;5000264;28;20025;-91
2023/03/03 13:02:06;;;;;;;4.60;2.80;;;;;;;;;;4998534;28;20037;-93
2023/03/03 13:04:46;;;;;;;9.13;3.20;;;;;;;;;;5000883;28;20040;-91
2023/03/03 13:07:44;;;;;;;4.28;2.90;;;;;;;;;;5024203;28;20035;-93
2023/03/03 13:10:19;;;;;;;3.58;2.65;;;;;;;;;;5017367;28;20014;-91
2023/03/03 13:13:03;;;;;;;4.65;2.67;;;;;;;;;;5014948;28;20034;-91
2023/03/03 13:15:49;;;;;;;5.53;2.63;;;;;;;;;;5001867;28;20033;-92
2023/03/03 13:18:21;;;;;;;4.45;2.83;;;;;;;;;;4997448;28;20440;-91
2023/03/03 13:21:27;;;;;;;5.40;2.65;;;;;;;;;;5016724;28;20113;-90
2023/03/03 13:24:11;;;;;;;3.70;2.70;;;;;;;;;;4988948;28;20045;-92
2023/03/03 13:26:41;;;;;;;4.18;2.33;;;;;;;;;;5002004;28;20036;-90
2023/03/03 13:29:20;;;;;;;4.35;2.25;;;;;;;;;;5007934;28;20030;-92
2023/03/03 13:31:52;;;;;;;3.65;2.35;;;;;;;;;;4996963;28;20026;-92
2023/03/03 13:34:39;;;;;;;4.05;2.00;;;;;;;;;;5029228;28;20037;-90
2023/03/03 13:37:13;;;;;;;3.45;2.45;;;;;;;;;;5001882;28;20196;-89
2023/03/03 13:39:50;;;;;;;;;;;;;;;;;;4989352;28;20080;-92
2023/03/03 13:42:26;;;;;;;3.13;2.40;;;;;;;;;;5006246;28;19971;-94
2023/03/03 13:44:54;;;;;;;4.07;2.17;;;;;;;;;;4997567;28;20026;-91
2023/03/03 13:47:31;;;;;;;4.22;2.40;;;;;;;;;;4986470;28;20036;-90
2023/03/03 13:50:12;;;;;;;4.78;2.20;;;;;;;;;;5017071;28;20412;-89
2023/03/03 13:52:59;;;;;;;4.53;2.45;;;;;;;;;;5003209;28;20041;-90
2023/03/03 13:55:44;;;;;;;4.10;2.40;;;;;;;;;;5016864;28;20111;-90
2023/03/03 13:58:16;;;;;;;4.30;2.13;;;;;;;;;;5016954;28;20122;-90
2023/03/03 14:01:05;;;;;;;3.75;2.10;;;;;;;;;;5006871;28;20078;-89
2023/03/03 14:03:56;;;;;;;2.97;1.90;;;;;;;;;;4989623;28;20084;-90
2023/03/03 14:06:26;;;;;;;2.78;1.60;;;;;;;;;;5005595;28;20033;-91
2023/03/03 14:09:03;;;;;;;2.13;1.83;;;;;;;;;;4985182;28;20036;-90
2023/03/03 14:11:46;;;;;;;2.92;1.70;;;;;;;;;;5015943;28;20092;-90
2023/03/03 14:14:48;;;;;;;4.03;1.92;;;;;;;;;;4982966;28;20034;-90
2023/03/03 14:17:24;;;;;;;2.85;1.40;;;;;;;;;;5000557;28;20419;-90
2023/03/03 14:20:12;;;;;;;2.80;1.67;;;;;;;;;;5000509;28;20026;-91
2023/03/03 14:22:43;;;;;;;2.78;1.38;;;;;;;;;;4984432;28;20029;-89
2023/03/03 14:25:11;;;;;;;5.03;1.65;;;;;;;;;;5017409;28;20389;-89
2023/03/03 14:27:48;;;;;;;2.38;1.33;;;;;;;;;;5000690;28;20129;-90
2023/03/03 14:30:52;;;;;;;3.67;1.40;;;;;;;;;;5017339;28;20057;-90
2023/03/03 14:33:20;;;;;;;2.53;1.17;;;;;;;;;;5000282;28;20034;-91
2023/03/03 14:35:58;;;;;;;1.83;1.40;;;;;;;;;;4983605;28;20038;-91
2023/03/03 14:38:36;;;;;;;2.88;1.35;;;;;;;;;;5017178;28;20469;-90
2023/03/03 14:41:13;;;;;;;2.33;1.40;;;;;;;;;;4999834;28;20468;-90
2023/03/03 14:43:41;;;;;;;2.55;1.25;;;;;;;;;;5015919;28;20044;-90
2023/03/03 14:46:32;;;;;;;2.63;1.33;;;;;;;;;;4983149;28;20392;-90
2023/03/03 14:49:33;;;;;;;1.52;1.30;;;;;;;;;;4999286;28;20054;-91
2023/03/03 14:52:10;;;;;;;1.10;1.00;;;;;;;;;;4989192;28;20041;-90
2023/03/03 14:54:38;;;;;;;1.48;0.93;;;;;;;;;;4998622;28;20018;-89
2023/03/03 14:57:14;;;;;;;2.55;1.20;;;;;;;;;;4999132;28;20033;-91
2023/03/03 14:59:40;;;;;;;1.83;1.17;;;;;;;;;;5000140;28;20083;-90
2023/03/03 15:02:15;;;;;;;1.75;1.10;;;;;;;;;;4986445;28;20065;-88
2023/03/03 15:04:41;;;;;;;1.05;0.95;;;;;;;;;;5022573;28;20017;-90
2023/03/03 15:07:25;;;;;;;2.15;1.40;;;;;;;;;;5004516;28;20022;-91
2023/03/03 15:09:50;;;;;;;1.58;0.80;;;;;;;;;;5030705;28;20029;-90
2023/03/03 15:12:36;;;;;;;3.13;1.15;;;;;;;;;;5003250;28;20041;-89
2023/03/03 15:15:04;;;;;;;0.95;0.88;;;;;;;;;;5001729;28;20033;-91
2023/03/03 15:17:39;;;;;;;1.45;0.98;;;;;;;;;;4999417;28;20034;-92